Time;durP1;ratioP1;P1;durP2;ratioP2;P2;SDS_P1;SDS_P2;PMS_P1;PMS_P2;Temp;Humidity;BMP_temperature;BMP_pressure;BME280_temperature;BME280_humidity;BME280_pressure;Samples;Min_cycle;Max_cycle;Signal;HPM_P1;HPM_P2
2022/10/27 00:02:17;;;;;;;681.73;637.10;;;11.00;46.80;;;;;;5005111;28;20235;-69
2022/10/27 00:04:43;;;;;;;547.50;510.30;;;11.10;45.90;;;;;;5013518;28;20613;-69
2022/10/27 00:07:08;;;;;;;548.53;512.70;;;11.10;45.70;;;;;;5013434;28;20193;-69
2022/10/27 00:09:34;;;;;;;503.07;469.30;;;11.10;45.60;;;;;;5006281;28;20185;-69
2022/10/27 00:11:59;;;;;;;733.83;684.20;;;11.10;45.40;;;;;;4993535;28;20227;-69
2022/10/27 00:14:25;;;;;;;688.83;641.80;;;11.00;45.10;;;;;;4993698;28;20175;-69
2022/10/27 00:16:55;;;;;;;376.63;352.30;;;10.90;46.40;;;;;;4993732;28;20252;-69
2022/10/27 00:19:22;;;;;;;417.73;390.87;;;10.90;47.00;;;;;;4997866;28;20541;-69
2022/10/27 00:21:50;;;;;;;492.40;461.93;;;10.90;47.20;;;;;;5013043;28;20435;-69
2022/10/27 00:24:17;;;;;;;269.03;250.47;;;10.90;47.20;;;;;;5013036;28;20423;-69
2022/10/27 00:26:42;;;;;;;644.07;602.67;;;10.90;47.10;;;;;;5012227;28;20416;-69
2022/10/27 00:29:08;;;;;;;495.93;463.27;;;11.00;46.60;;;;;;5002290;28;20806;-69
2022/10/27 00:31:33;;;;;;;582.83;544.63;;;11.00;46.70;;;;;;5002925;28;20619;-69
2022/10/27 00:33:59;;;;;;;549.00;513.13;;;10.90;46.40;;;;;;4996260;28;20579;-69
2022/10/27 00:36:25;;;;;;;586.30;547.20;;;10.80;46.60;;;;;;4993174;28;20177;-70
2022/10/27 00:38:58;;;;;;;247.13;231.73;;;10.80;47.10;;;;;;4994363;28;20431;-70
2022/10/27 00:41:35;;;;;;;789.50;737.87;;;10.80;47.10;;;;;;5005638;28;20225;-70
2022/10/27 00:44:22;;;;;;;568.00;530.90;;;10.70;47.00;;;;;;5011620;28;20953;-69
2022/10/27 00:46:48;;;;;;;460.73;430.07;;;10.70;47.80;;;;;;5011937;28;20772;-69
2022/10/27 00:49:21;;;;;;;640.20;597.57;;;10.70;48.20;;;;;;5000918;28;20452;-70
2022/10/27 00:51:55;;;;;;;431.80;404.50;;;10.70;47.70;;;;;;5001564;28;20570;-69
2022/10/27 00:54:21;;;;;;;686.90;642.47;;;10.70;47.80;;;;;;4993174;28;20396;-69
2022/10/27 00:56:50;;;;;;;322.07;298.43;;;10.60;47.00;;;;;;4993174;28;20782;-70
2022/10/27 00:59:17;;;;;;;617.53;577.63;;;10.60;47.70;;;;;;4991660;28;20439;-70
2022/10/27 01:01:43;;;;;;;698.13;652.70;;;10.50;47.10;;;;;;4992482;28;20432;-69
2022/10/27 01:04:10;;;;;;;822.33;766.10;;;10.50;47.70;;;;;;4993007;28;20415;-70
2022/10/27 01:06:36;;;;;;;511.47;478.03;;;10.50;46.80;;;;;;4992881;28;20412;-70
2022/10/27 01:09:02;;;;;;;583.83;545.07;;;10.40;47.20;;;;;;5010071;28;20427;-69
2022/10/27 01:11:27;;;;;;;324.10;303.77;;;10.50;46.80;;;;;;5012173;28;20253;-69
2022/10/27 01:13:53;;;;;;;426.37;398.60;;;10.50;46.80;;;;;;5012434;28;20581;-70
2022/10/27 01:16:30;;;;;;;283.37;264.10;;;10.40;46.70;;;;;;5011349;28;20183;-69
2022/10/27 01:19:17;;;;;;;386.83;364.10;;;10.40;47.40;;;;;;4991441;28;20787;-70
2022/10/27 01:22:02;;;;;;;572.43;534.57;;;10.40;46.70;;;;;;4992383;28;20823;-69
2022/10/27 01:25:24;;;;;;;411.20;383.30;;;10.30;47.50;;;;;;4992623;28;20415;-69
2022/10/27 01:28:27;;;;;;;430.93;403.50;;;10.40;46.70;;;;;;4971088;28;20440;-69
2022/10/27 01:31:00;;;;;;;802.87;751.93;;;10.40;46.70;;;;;;4970496;28;20447;-69
2022/10/27 01:33:37;;;;;;;627.70;586.97;;;10.30;46.60;;;;;;4989909;28;20447;-68
2022/10/27 01:36:23;;;;;;;536.30;501.27;;;10.30;46.80;;;;;;4992543;28;20414;-68
2022/10/27 01:39:15;;;;;;;425.07;397.53;;;10.30;47.20;;;;;;4996992;28;20419;-68
2022/10/27 01:41:46;;;;;;;592.77;554.60;;;10.30;47.60;;;;;;5006309;28;20453;-67
2022/10/27 01:44:34;;;;;;;275.83;259.77;;;10.30;46.70;;;;;;5016083;28;20497;-67
2022/10/27 01:47:01;;;;;;;305.80;285.67;;;10.30;47.30;;;;;;5015619;28;20438;-67
2022/10/27 01:49:35;;;;;;;376.13;352.90;;;10.30;46.50;;;;;;5016028;28;20457;-67
2022/10/27 01:52:27;;;;;;;538.37;504.97;;;10.30;46.60;;;;;;5001144;28;20467;-69
2022/10/27 01:54:55;;;;;;;520.03;485.67;;;10.20;46.60;;;;;;4996283;28;20435;-69
2022/10/27 01:57:32;;;;;;;580.30;541.40;;;10.10;46.40;;;;;;4996308;28;20404;-69
2022/10/27 02:00:05;;;;;;;493.93;462.33;;;10.10;46.50;;;;;;4996143;28;20481;-69
2022/10/27 02:02:34;;;;;;;493.73;462.00;;;10.10;47.40;;;;;;5000122;28;20450;-69
2022/10/27 02:05:05;;;;;;;678.07;634.40;;;10.10;47.40;;;;;;5015668;28;20493;-69
2022/10/27 02:07:54;;;;;;;463.83;433.70;;;10.10;46.50;;;;;;5015671;28;20415;-69
2022/10/27 02:10:26;;;;;;;524.03;490.43;;;10.10;46.50;;;;;;5015625;28;20410;-69
2022/10/27 02:12:53;;;;;;;674.97;631.30;;;10.00;46.80;;;;;;5007814;28;20467;-69
2022/10/27 02:15:36;;;;;;;778.80;728.00;;;9.90;47.50;;;;;;4995896;28;20431;-69
2022/10/27 02:18:07;;;;;;;406.70;381.90;;;9.80;48.20;;;;;;4995958;28;20793;-69
2022/10/27 02:20:37;;;;;;;316.30;296.20;;;9.80;47.80;;;;;;4995845;28;20495;-69
2022/10/27 02:23:06;;;;;;;419.10;392.20;;;9.90;49.30;;;;;;4995631;28;20455;-69
2022/10/27 02:25:55;;;;;;;507.83;474.53;;;9.90;47.60;;;;;;5006088;28;20896;-69
2022/10/27 02:28:27;;;;;;;373.70;351.00;;;9.90;48.60;;;;;;5015520;28;20494;-69
2022/10/27 02:30:57;;;;;;;309.50;290.57;;;9.80;48.00;;;;;;5010497;28;20435;-68
2022/10/27 02:33:23;;;;;;;457.97;428.97;;;9.80;48.50;;;;;;4995529;28;20422;-69
2022/10/27 02:35:49;;;;;;;641.47;600.97;;;9.80;49.80;;;;;;4995582;28;20407;-69
2022/10/27 02:38:14;;;;;;;226.57;212.60;;;9.70;48.70;;;;;;5011543;28;20422;-69
2022/10/27 02:40:40;;;;;;;434.27;405.73;;;9.70;50.20;;;;;;5014976;28;20199;-69
2022/10/27 02:43:05;;;;;;;576.20;539.93;;;9.70;49.70;;;;;;5014728;28;20595;-69
2022/10/27 02:45:31;;;;;;;752.60;705.93;;;9.70;49.90;;;;;;5014958;28;20666;-69
2022/10/27 02:47:56;;;;;;;594.73;557.67;;;9.80;48.70;;;;;;5014802;28;20194;-69
2022/10/27 02:50:22;;;;;;;371.50;349.37;;;9.80;48.90;;;;;;4996242;28;20192;-69
2022/10/27 02:52:47;;;;;;;523.83;490.47;;;9.70;48.70;;;;;;4994800;28;20549;-69
2022/10/27 02:55:13;;;;;;;448.47;419.13;;;9.70;48.90;;;;;;4995256;28;20267;-69
2022/10/27 02:57:39;;;;;;;648.90;607.73;;;9.60;48.50;;;;;;4995235;28;20344;-69
2022/10/27 03:00:05;;;;;;;822.80;770.80;;;9.50;48.40;;;;;;5003924;28;20311;-69
2022/10/27 03:02:30;;;;;;;723.73;677.83;;;9.40;48.70;;;;;;5004405;28;20278;-69
2022/10/27 03:04:56;;;;;;;719.27;675.80;;;9.50;49.50;;;;;;4999886;28;20522;-69
2022/10/27 03:07:23;;;;;;;512.40;479.90;;;9.40;50.00;;;;;;4995067;28;20634;-69
2022/10/27 03:09:48;;;;;;;464.10;435.30;;;9.30;50.60;;;;;;4995074;28;20456;-68
2022/10/27 03:12:14;;;;;;;367.73;346.30;;;9.30;51.70;;;;;;4994536;28;20554;-68
2022/10/27 03:14:39;;;;;;;504.37;473.73;;;9.50;51.40;;;;;;4994830;28;20176;-68
2022/10/27 03:17:05;;;;;;;636.47;598.50;;;9.50;50.00;;;;;;4994793;28;20179;-68
2022/10/27 03:19:30;;;;;;;379.93;358.17;;;9.40;49.40;;;;;;5006457;28;20222;-69
2022/10/27 03:21:56;;;;;;;492.57;462.77;;;9.30;49.80;;;;;;5004142;28;20207;-69
2022/10/27 03:24:21;;;;;;;480.60;451.77;;;9.20;50.00;;;;;;4994625;28;20184;-69
2022/10/27 03:26:47;;;;;;;453.37;426.87;;;9.20;51.60;;;;;;4995689;28;20186;-69
2022/10/27 03:29:12;;;;;;;602.97;566.63;;;9.10;51.50;;;;;;4994587;28;20195;-69
2022/10/27 03:31:38;;;;;;;488.40;458.17;;;9.20;51.70;;;;;;4993909;28;20229;-69
2022/10/27 03:34:03;;;;;;;505.50;476.40;;;9.20;51.60;;;;;;4994541;28;20555;-69
2022/10/27 03:36:29;;;;;;;565.77;532.13;;;9.20;51.60;;;;;;4994727;28;20184;-68
2022/10/27 03:38:54;;;;;;;703.73;660.90;;;9.10;51.60;;;;;;4994418;28;20202;-68
2022/10/27 03:41:20;;;;;;;407.03;383.13;;;9.10;51.60;;;;;;4994101;28;20681;-69
2022/10/27 03:43:46;;;;;;;333.83;313.73;;;9.10;52.10;;;;;;4994374;28;20195;-69
2022/10/27 03:46:11;;;;;;;582.73;548.20;;;9.10;51.60;;;;;;4994172;28;20418;-69
2022/10/27 03:48:38;;;;;;;551.03;518.47;;;9.10;51.60;;;;;;4998779;28;20192;-69
2022/10/27 03:51:03;;;;;;;454.67;428.43;;;9.00;51.50;;;;;;5013194;28;20223;-69
2022/10/27 03:53:29;;;;;;;382.20;360.77;;;9.00;51.50;;;;;;5013888;28;20441;-68
2022/10/27 03:55:54;;;;;;;473.13;444.77;;;9.00;51.50;;;;;;5013567;28;20217;-69
2022/10/27 03:58:20;;;;;;;437.93;411.43;;;9.00;51.50;;;;;;5013690;28;20191;-68
2022/10/27 04:00:46;;;;;;;395.63;371.97;;;8.90;52.00;;;;;;5009683;28;20175;-69
2022/10/27 04:03:12;;;;;;;322.53;303.50;;;8.90;52.50;;;;;;4993964;28;20659;-68
2022/10/27 04:05:37;;;;;;;445.73;420.57;;;8.90;52.40;;;;;;4994059;28;20462;-69
2022/10/27 04:08:03;;;;;;;491.00;461.03;;;9.00;51.50;;;;;;4993815;28;20524;-69
2022/10/27 04:10:28;;;;;;;454.67;425.87;;;8.90;51.90;;;;;;4993782;28;20176;-69
2022/10/27 04:12:56;;;;;;;619.20;582.93;;;8.80;51.30;;;;;;4995178;28;20238;-69
2022/10/27 04:15:24;;;;;;;416.70;390.83;;;8.80;51.30;;;;;;5013328;28;20552;-69
2022/10/27 04:17:57;;;;;;;386.27;361.70;;;8.80;51.30;;;;;;5013244;28;20419;-69
2022/10/27 04:20:24;;;;;;;442.83;415.87;;;8.80;51.30;;;;;;5013358;28;20449;-69
2022/10/27 04:22:50;;;;;;;523.87;493.90;;;8.80;52.00;;;;;;4998070;28;20450;-69
2022/10/27 04:25:15;;;;;;;507.93;478.27;;;8.80;51.70;;;;;;4993559;28;20425;-69
2022/10/27 04:27:41;;;;;;;397.93;375.13;;;8.80;51.30;;;;;;4993413;28;20212;-68
2022/10/27 04:30:07;;;;;;;452.90;423.57;;;8.70;51.20;;;;;;4993382;28;20195;-69
2022/10/27 04:32:33;;;;;;;584.17;549.23;;;8.70;52.10;;;;;;4993021;28;20266;-69
2022/10/27 04:34:58;;;;;;;438.43;411.37;;;8.70;51.50;;;;;;4993165;28;20463;-69
2022/10/27 04:37:24;;;;;;;529.30;496.97;;;8.60;51.90;;;;;;4993353;28;20219;-69
2022/10/27 04:39:49;;;;;;;322.63;303.60;;;8.60;52.50;;;;;;4993682;28;20190;-69
2022/10/27 04:42:15;;;;;;;540.87;506.93;;;8.70;52.50;;;;;;4992984;28;20215;-68
2022/10/27 04:44:40;;;;;;;514.07;482.93;;;8.70;51.50;;;;;;5005170;28;20195;-69
2022/10/27 04:47:06;;;;;;;417.37;391.17;;;8.70;53.10;;;;;;5012841;28;20182;-69
2022/10/27 04:49:31;;;;;;;458.70;431.13;;;8.60;53.40;;;;;;5012727;28;20202;-69
2022/10/27 04:51:57;;;;;;;467.63;441.37;;;8.70;53.00;;;;;;5012218;28;20214;-69
2022/10/27 04:54:22;;;;;;;418.27;392.60;;;8.70;52.70;;;;;;5012527;28;20273;-69
2022/10/27 04:56:49;;;;;;;443.33;417.27;;;8.60;52.90;;;;;;4996754;28;20242;-69
2022/10/27 04:59:15;;;;;;;490.60;461.47;;;8.60;53.40;;;;;;4992708;28;20173;-69
2022/10/27 05:01:40;;;;;;;457.00;428.70;;;8.60;53.20;;;;;;4992331;28;20497;-69
2022/10/27 05:04:06;;;;;;;305.13;287.50;;;8.70;53.80;;;;;;4992964;28;20191;-69
2022/10/27 05:06:31;;;;;;;487.27;459.50;;;8.70;54.00;;;;;;4992836;28;20183;-69
2022/10/27 05:08:57;;;;;;;543.30;511.67;;;8.70;54.70;;;;;;5006956;28;20194;-69
2022/10/27 05:11:22;;;;;;;449.17;422.30;;;8.80;53.80;;;;;;4993292;28;20215;-69
2022/10/27 05:13:49;;;;;;;485.63;457.53;;;8.80;55.30;;;;;;4992018;28;20643;-68
2022/10/27 05:16:15;;;;;;;387.60;364.13;;;8.70;53.30;;;;;;4992464;28;20174;-69
2022/10/27 05:18:41;;;;;;;513.13;481.47;;;8.80;54.50;;;;;;4992674;28;20415;-69
2022/10/27 05:21:06;;;;;;;526.67;496.10;;;8.80;54.30;;;;;;5009264;28;20475;-71
2022/10/27 05:23:32;;;;;;;401.03;378.73;;;8.80;54.00;;;;;;5012262;28;20544;-71
2022/10/27 05:25:57;;;;;;;480.07;450.97;;;8.80;54.10;;;;;;5010771;28;20180;-70
2022/10/27 05:28:23;;;;;;;401.40;377.87;;;8.80;55.20;;;;;;5012092;28;20645;-68
2022/10/27 05:30:49;;;;;;;437.40;410.90;;;8.80;54.50;;;;;;5007628;28;20211;-68
2022/10/27 05:33:14;;;;;;;485.77;456.33;;;8.90;55.30;;;;;;5009903;28;20215;-68
2022/10/27 05:35:40;;;;;;;541.57;508.13;;;8.90;54.50;;;;;;5011936;28;20667;-68
2022/10/27 05:38:06;;;;;;;587.50;552.93;;;8.90;53.90;;;;;;5011662;28;20186;-67
2022/10/27 05:40:34;;;;;;;481.77;452.63;;;9.00;54.10;;;;;;5011796;28;20997;-68
2022/10/27 05:43:01;;;;;;;470.27;442.90;;;8.90;53.60;;;;;;5010930;28;20575;-68
2022/10/27 05:45:27;;;;;;;471.73;441.30;;;9.00;54.00;;;;;;4992403;28;20416;-68
2022/10/27 05:48:00;;;;;;;538.73;505.60;;;9.10;53.90;;;;;;4992329;28;20510;-68
2022/10/27 05:50:27;;;;;;;560.17;528.53;;;9.10;54.10;;;;;;4992233;28;20436;-68
2022/10/27 05:52:53;;;;;;;562.53;525.40;;;9.10;53.50;;;;;;4999401;28;20567;-68
2022/10/27 05:55:18;;;;;;;473.57;444.53;;;9.00;54.10;;;;;;5011904;28;20520;-68
2022/10/27 05:58:05;;;;;;;446.13;419.57;;;9.10;55.00;;;;;;5011829;28;20179;-68
2022/10/27 06:00:33;;;;;;;601.07;564.67;;;9.20;55.70;;;;;;5011698;28;20661;-68
2022/10/27 06:03:01;;;;;;;551.00;518.70;;;9.20;55.10;;;;;;5003024;28;20423;-68
2022/10/27 06:05:28;;;;;;;495.10;464.27;;;9.30;54.70;;;;;;4992339;28;20426;-68
2022/10/27 06:07:54;;;;;;;509.90;479.03;;;9.30;54.30;;;;;;5001672;28;20426;-68
2022/10/27 06:10:19;;;;;;;434.70;409.73;;;9.20;54.60;;;;;;5011900;28;20411;-68
2022/10/27 06:12:45;;;;;;;593.13;557.33;;;9.30;54.80;;;;;;5011371;28;20211;-68
2022/10/27 06:15:11;;;;;;;579.63;544.23;;;9.30;54.50;;;;;;5000608;28;20549;-68
2022/10/27 06:17:36;;;;;;;494.53;466.23;;;9.20;54.10;;;;;;4992096;28;20222;-68
2022/10/27 06:20:02;;;;;;;505.20;475.80;;;9.20;54.40;;;;;;4992078;28;20745;-70
2022/10/27 06:22:28;;;;;;;553.23;520.17;;;9.30;54.20;;;;;;4991569;28;20219;-69
2022/10/27 06:24:53;;;;;;;616.77;579.73;;;9.30;54.30;;;;;;4993979;28;20908;-69
2022/10/27 06:27:19;;;;;;;411.97;386.43;;;9.40;52.70;;;;;;5006211;28;20183;-69
2022/10/27 06:29:44;;;;;;;508.77;477.60;;;9.40;53.80;;;;;;5014939;28;20187;-69
2022/10/27 06:32:10;;;;;;;596.43;558.27;;;9.50;52.80;;;;;;4999745;28;20621;-69
2022/10/27 06:34:36;;;;;;;509.63;477.40;;;9.40;51.80;;;;;;4995590;28;20192;-69
2022/10/27 06:37:02;;;;;;;568.23;533.23;;;9.40;51.80;;;;;;5002886;28;20193;-69
2022/10/27 06:39:28;;;;;;;575.37;538.97;;;9.40;52.50;;;;;;5015059;28;20179;-70
2022/10/27 06:41:55;;;;;;;512.97;481.40;;;9.30;51.70;;;;;;5014827;28;20477;-69
2022/10/27 06:44:21;;;;;;;533.03;498.90;;;9.40;51.80;;;;;;5015061;28;20920;-69
2022/10/27 06:46:46;;;;;;;494.67;463.90;;;9.40;53.00;;;;;;5009915;28;20524;-69
2022/10/27 06:49:12;;;;;;;410.00;384.23;;;9.40;52.10;;;;;;4994208;28;20191;-69
2022/10/27 06:51:37;;;;;;;470.57;441.60;;;9.50;53.50;;;;;;4995414;28;20222;-70
2022/10/27 06:54:03;;;;;;;473.87;444.00;;;9.60;52.00;;;;;;4998898;28;20183;-70
2022/10/27 06:56:28;;;;;;;558.23;523.57;;;9.50;51.90;;;;;;5006034;28;20179;-69
2022/10/27 06:58:54;;;;;;;587.53;549.70;;;9.60;52.00;;;;;;5023530;28;20171;-70
2022/10/27 07:01:19;;;;;;;473.20;444.00;;;9.60;52.00;;;;;;5015906;28;20669;-70
2022/10/27 07:03:45;;;;;;;517.73;486.27;;;9.60;50.60;;;;;;5014738;28;20179;-69
2022/10/27 07:06:10;;;;;;;679.60;635.13;;;9.40;50.70;;;;;;5022448;28;20568;-69
2022/10/27 07:08:36;;;;;;;551.60;516.60;;;9.40;50.30;;;;;;5006831;28;20191;-69
2022/10/27 07:11:01;;;;;;;609.57;570.03;;;9.40;49.10;;;;;;5007400;28;20200;-70
2022/10/27 07:13:27;;;;;;;492.83;462.47;;;9.30;50.20;;;;;;5018438;28;20218;-69
2022/10/27 07:15:52;;;;;;;523.27;493.00;;;9.40;50.10;;;;;;5014474;28;20716;-70
2022/10/27 07:18:18;;;;;;;615.20;576.60;;;9.50;50.80;;;;;;5014415;28;20581;-69
2022/10/27 07:20:45;;;;;;;405.43;381.50;;;9.60;50.30;;;;;;5014106;28;20548;-73
2022/10/27 07:23:11;;;;;;;490.50;460.90;;;9.60;49.50;;;;;;5014315;28;20176;-69
2022/10/27 07:25:37;;;;;;;659.00;618.73;;;9.70;49.90;;;;;;5001823;28;20441;-69
2022/10/27 07:28:05;;;;;;;523.60;492.03;;;9.80;49.10;;;;;;5014825;28;20188;-69
2022/10/27 07:30:37;;;;;;;388.37;366.33;;;9.90;48.90;;;;;;5005573;28;20423;-69
2022/10/27 07:33:03;;;;;;;660.13;618.77;;;10.00;47.10;;;;;;4994261;28;20466;-69
2022/10/27 07:35:28;;;;;;;497.10;466.57;;;10.10;46.40;;;;;;4994111;28;20407;-69
2022/10/27 07:37:54;;;;;;;795.33;746.00;;;10.10;46.50;;;;;;4994264;28;20427;-69
2022/10/27 07:40:21;;;;;;;713.97;668.77;;;10.20;45.50;;;;;;4994564;28;20180;-69
2022/10/27 07:42:49;;;;;;;538.67;504.10;;;10.30;45.40;;;;;;4994858;28;20447;-70
2022/10/27 07:45:16;;;;;;;495.10;463.47;;;10.30;46.60;;;;;;5004691;28;20441;-69
2022/10/27 07:47:50;;;;;;;382.90;360.07;;;10.40;45.60;;;;;;4995730;28;20420;-69
2022/10/27 07:50:17;;;;;;;619.67;580.37;;;10.50;45.30;;;;;;5000247;28;20456;-69
2022/10/27 07:52:48;;;;;;;658.47;617.30;;;10.50;45.90;;;;;;5013922;28;20572;-68
2022/10/27 07:55:15;;;;;;;595.90;557.23;;;10.60;46.30;;;;;;5013910;28;20772;-67
2022/10/27 07:57:41;;;;;;;484.40;452.83;;;10.80;45.80;;;;;;5013619;28;20469;-68
2022/10/27 08:00:17;;;;;;;732.67;685.50;;;10.90;45.70;;;;;;5013415;28;20487;-68
2022/10/27 08:02:43;;;;;;;700.17;655.77;;;11.00;43.50;;;;;;5004687;28;20439;-68
2022/10/27 08:05:10;;;;;;;722.90;675.97;;;11.10;43.40;;;;;;4994404;28;20796;-68
2022/10/27 08:07:36;;;;;;;641.80;600.67;;;11.30;42.50;;;;;;4996849;28;20416;-68
2022/10/27 08:10:02;;;;;;;600.27;558.67;;;11.40;40.80;;;;;;4994081;28;20451;-69
2022/10/27 08:12:27;;;;;;;721.50;674.67;;;11.40;39.60;;;;;;4993285;28;20504;-66
2022/10/27 08:14:53;;;;;;;466.20;435.70;;;11.50;40.80;;;;;;4996958;28;20433;-66
2022/10/27 08:17:19;;;;;;;600.40;559.40;;;11.50;40.30;;;;;;5010590;28;20183;-66
2022/10/27 08:19:44;;;;;;;537.93;502.67;;;11.50;39.10;;;;;;5012460;28;20219;-66
2022/10/27 08:22:10;;;;;;;379.73;355.93;;;11.60;39.00;;;;;;5013056;28;20207;-66
2022/10/27 08:24:36;;;;;;;600.63;560.77;;;11.70;37.70;;;;;;5013365;28;20263;-66
2022/10/27 08:27:01;;;;;;;491.23;459.30;;;11.70;37.70;;;;;;5012887;28;20184;-67
2022/10/27 08:29:27;;;;;;;417.20;388.77;;;11.70;37.70;;;;;;5013056;28;20266;-66
2022/10/27 08:31:53;;;;;;;615.03;573.63;;;11.90;37.60;;;;;;5012797;28;20208;-66
2022/10/27 08:34:18;;;;;;;439.20;411.07;;;12.00;36.60;;;;;;5013150;28;20172;-67
2022/10/27 08:36:44;;;;;;;497.10;463.73;;;12.10;36.20;;;;;;5013098;28;20419;-67
2022/10/27 08:39:11;;;;;;;417.77;390.37;;;12.10;37.80;;;;;;5013126;28;20171;-66
2022/10/27 08:41:55;;;;;;;690.27;645.37;;;12.20;36.10;;;;;;5012973;28;20380;-66
2022/10/27 08:44:21;;;;;;;796.37;743.97;;;12.30;35.30;;;;;;5012693;28;20427;-66
2022/10/27 08:46:55;;;;;;;571.10;533.67;;;12.30;36.50;;;;;;5012878;28;20974;-67
2022/10/27 08:49:37;;;;;;;702.07;654.23;;;12.40;35.20;;;;;;5012705;28;20212;-66
2022/10/27 08:52:11;;;;;;;727.33;679.00;;;12.60;34.50;;;;;;5012352;28;20579;-66
2022/10/27 08:54:39;;;;;;;630.30;587.90;;;12.50;35.40;;;;;;5012663;28;20686;-67
2022/10/27 08:57:09;;;;;;;670.80;625.43;;;12.60;35.90;;;;;;5012620;28;20504;-67
2022/10/27 08:59:36;;;;;;;649.37;605.17;;;12.70;36.30;;;;;;5012594;28;20422;-67
2022/10/27 09:02:21;;;;;;;652.80;609.30;;;12.80;35.80;;;;;;5012255;28;20501;-66
2022/10/27 09:05:08;;;;;;;550.93;514.03;;;12.90;35.90;;;;;;5012594;28;20418;-66
2022/10/27 09:07:46;;;;;;;668.50;624.33;;;13.10;35.80;;;;;;5012599;28;20800;-67
2022/10/27 09:10:37;;;;;;;505.80;474.50;;;13.20;33.80;;;;;;5012312;28;20456;-66
2022/10/27 09:13:06;;;;;;;674.07;629.43;;;13.40;32.40;;;;;;5012033;28;20572;-66
2022/10/27 09:15:39;;;;;;;561.47;525.70;;;13.50;30.80;;;;;;5012107;28;20422;-67
2022/10/27 09:18:26;;;;;;;570.33;531.80;;;13.60;31.20;;;;;;5011271;28;20471;-66
2022/10/27 09:20:55;;;;;;;569.77;531.63;;;13.80;30.40;;;;;;5011914;28;20466;-66
2022/10/27 09:23:43;;;;;;;469.73;437.40;;;14.00;29.80;;;;;;5012278;28;20446;-66
2022/10/27 09:26:12;;;;;;;645.93;603.47;;;14.10;29.90;;;;;;5011813;28;20435;-66
2022/10/27 09:28:45;;;;;;;693.63;647.37;;;14.30;29.70;;;;;;5012140;28;21006;-66
2022/10/27 09:31:20;;;;;;;697.80;651.27;;;14.40;29.20;;;;;;5011966;28;20848;-67
2022/10/27 09:33:55;;;;;;;687.13;641.40;;;14.60;28.30;;;;;;5012194;28;20493;-67
2022/10/27 09:36:22;;;;;;;193.00;177.53;;;14.70;27.60;;;;;;5012591;28;20429;-68
2022/10/27 09:38:48;;;;;;;421.63;391.67;;;14.70;28.00;;;;;;5012390;28;20430;-66
2022/10/27 09:41:14;;;;;;;716.10;667.33;;;14.90;27.60;;;;;;5011695;28;20932;-67
2022/10/27 09:43:39;;;;;;;665.00;618.77;;;15.00;26.80;;;;;;5011996;28;20180;-67
2022/10/27 09:46:23;;;;;;;634.90;589.50;;;15.00;27.10;;;;;;5011996;28;20419;-67
2022/10/27 09:48:53;;;;;;;579.23;538.17;;;15.10;26.90;;;;;;5011949;28;20184;-67
2022/10/27 09:51:31;;;;;;;685.63;636.40;;;15.30;26.20;;;;;;5011452;28;20685;-66
2022/10/27 09:53:56;;;;;;;231.20;212.80;;;15.40;26.10;;;;;;5011904;28;20427;-67
2022/10/27 09:56:28;;;;;;;222.63;204.37;;;15.50;26.10;;;;;;5011839;28;20422;-66
2022/10/27 09:59:01;;;;;;;618.00;575.03;;;15.60;25.60;;;;;;5012350;28;20282;-66
2022/10/27 10:01:38;;;;;;;725.53;673.43;;;15.60;24.70;;;;;;5015515;28;20469;-67
2022/10/27 10:04:26;;;;;;;903.37;839.50;;;15.70;24.00;;;;;;5015791;28;20469;-66
2022/10/27 10:06:58;;;;;;;693.77;644.70;;;15.80;24.70;;;;;;5015794;28;20410;-67
2022/10/27 10:09:35;;;;;;;440.50;406.83;;;15.90;24.60;;;;;;5015752;28;20438;-67
2022/10/27 10:12:21;;;;;;;656.93;609.83;;;16.00;23.40;;;;;;5015299;28;20995;-67
2022/10/27 10:14:47;;;;;;;776.20;723.47;;;16.20;22.60;;;;;;5015556;28;20469;-67
2022/10/27 10:17:26;;;;;;;830.00;770.13;;;16.30;22.70;;;;;;5015355;28;20410;-67
2022/10/27 10:19:54;;;;;;;575.50;533.27;;;16.30;22.70;;;;;;5015440;28;20183;-67
2022/10/27 10:22:27;;;;;;;686.27;635.93;;;16.50;22.80;;;;;;5014990;28;20962;-66
2022/10/27 10:24:55;;;;;;;725.03;672.53;;;16.60;22.60;;;;;;5015458;28;20461;-67
2022/10/27 10:27:30;;;;;;;167.67;154.17;;;16.70;22.00;;;;;;5015838;28;20787;-66
2022/10/27 10:29:58;;;;;;;721.10;669.63;;;16.90;21.10;;;;;;5015587;28;20827;-66
2022/10/27 10:32:34;;;;;;;505.77;469.00;;;17.10;20.60;;;;;;5015362;28;20455;-66
2022/10/27 10:35:00;;;;;;;470.10;435.23;;;17.20;20.20;;;;;;5016601;28;20416;-66
2022/10/27 10:37:28;;;;;;;439.23;407.00;;;17.30;19.80;;;;;;5015543;28;20410;-66
2022/10/27 10:39:54;;;;;;;613.87;568.50;;;17.40;19.40;;;;;;5015385;28;20410;-66
2022/10/27 10:42:19;;;;;;;853.90;793.97;;;17.50;19.70;;;;;;5014970;28;20496;-66
2022/10/27 10:44:45;;;;;;;895.43;829.80;;;17.60;19.30;;;;;;5015251;28;20699;-66
2022/10/27 10:47:25;;;;;;;512.07;473.27;;;17.60;19.30;;;;;;5015695;28;20589;-67
2022/10/27 10:49:58;;;;;;;831.33;772.13;;;17.80;19.00;;;;;;5015090;28;20497;-66
2022/10/27 10:52:34;;;;;;;830.07;770.73;;;17.90;18.20;;;;;;5014354;28;20524;-66
2022/10/27 10:55:15;;;;;;;667.10;617.80;;;18.10;18.30;;;;;;5014942;28;20411;-66
2022/10/27 10:57:44;;;;;;;670.97;621.40;;;18.20;17.40;;;;;;5014850;28;20453;-66
2022/10/27 11:00:18;;;;;;;720.07;666.10;;;18.30;17.70;;;;;;5014949;28;20472;-66
2022/10/27 11:02:55;;;;;;;717.40;662.50;;;18.40;17.00;;;;;;5014697;28;20426;-67
2022/10/27 11:05:33;;;;;;;692.50;642.67;;;18.50;15.50;;;;;;5014969;28;20983;-67
2022/10/27 11:07:59;;;;;;;914.00;844.03;;;18.70;16.00;;;;;;5014710;28;20912;-67
2022/10/27 11:10:25;;;;;;;803.73;744.63;;;18.70;16.20;;;;;;5014032;28;20470;-67
2022/10/27 11:12:56;;;;;;;908.43;840.10;;;18.80;15.80;;;;;;5013824;28;20220;-67
2022/10/27 11:15:30;;;;;;;707.40;654.10;;;18.90;15.80;;;;;;5014508;28;20419;-67
2022/10/27 11:18:10;;;;;;;414.43;380.50;;;19.00;15.90;;;;;;5014635;28;20410;-67
2022/10/27 11:20:37;;;;;;;788.53;729.63;;;19.10;15.90;;;;;;5014293;28;20422;-67
2022/10/27 11:23:10;;;;;;;998.33;923.33;;;19.30;15.10;;;;;;5013945;28;20979;-67
2022/10/27 11:25:36;;;;;;;694.17;641.00;;;19.40;15.40;;;;;;5014454;28;20415;-67
2022/10/27 11:28:15;;;;;;;802.70;742.07;;;19.40;15.50;;;;;;5014360;28;20417;-67
2022/10/27 11:30:58;;;;;;;639.80;593.70;;;19.60;15.60;;;;;;5014373;28;20411;-67
2022/10/27 11:33:26;;;;;;;644.73;596.50;;;19.70;15.70;;;;;;5014564;28;20473;-67
2022/10/27 11:36:10;;;;;;;692.97;640.27;;;19.80;14.70;;;;;;5013762;28;20422;-67
2022/10/27 11:38:57;;;;;;;707.17;654.37;;;19.90;14.30;;;;;;5014938;28;20936;-67
2022/10/27 11:41:40;;;;;;;750.23;689.57;;;20.10;13.40;;;;;;5013700;28;20422;-67
2022/10/27 11:44:19;;;;;;;901.07;827.37;;;20.20;12.80;;;;;;5014023;28;20769;-67
2022/10/27 11:47:10;;;;;;;892.83;820.00;;;20.30;13.20;;;;;;5013973;28;20407;-67
2022/10/27 11:49:53;;;;;;;845.07;774.70;;;20.30;13.40;;;;;;5008028;28;20478;-68
2022/10/27 11:52:29;;;;;;;498.57;460.90;;;20.50;12.50;;;;;;4992201;28;20479;-68
2022/10/27 11:54:55;;;;;;;681.87;629.53;;;20.60;12.50;;;;;;4994046;28;20787;-67
2022/10/27 11:57:39;;;;;;;543.20;500.63;;;20.60;13.50;;;;;;5001956;28;20458;-67
2022/10/27 12:00:19;;;;;;;370.83;344.03;;;20.60;13.00;;;;;;5013588;28;20406;-67
2022/10/27 12:03:13;;;;;;;715.27;660.87;;;20.80;12.60;;;;;;5012876;28;20516;-67
2022/10/27 12:06:15;;;;;;;819.47;752.27;;;20.80;12.70;;;;;;5013472;28;20423;-67
2022/10/27 12:08:50;;;;;;;727.53;670.50;;;20.80;12.60;;;;;;5013311;28;20441;-67
2022/10/27 12:11:49;;;;;;;880.23;808.23;;;20.90;12.70;;;;;;5012501;28;20434;-66
2022/10/27 12:14:39;;;;;;;676.63;620.90;;;21.00;13.10;;;;;;5006786;28;20422;-67
2022/10/27 12:17:30;;;;;;;797.50;732.67;;;21.00;12.80;;;;;;5033221;28;20425;-67
2022/10/27 12:19:58;;;;;;;916.83;843.33;;;21.00;12.80;;;;;;4993815;28;20412;-67
2022/10/27 12:22:42;;;;;;;471.90;438.73;;;21.10;13.20;;;;;;4993286;28;20930;-67
2022/10/27 12:25:28;;;;;;;890.63;818.00;;;21.20;12.80;;;;;;4994081;28;20925;-67
2022/10/27 12:27:57;;;;;;;933.30;861.33;;;21.20;12.20;;;;;;4993650;28;20994;-67
2022/10/27 12:30:24;;;;;;;833.17;766.97;;;21.20;12.70;;;;;;4993466;28;20415;-67